Time;durP1;ratioP1;P1;durP2;ratioP2;P2;SDS_P1;SDS_P2;PMS_P1;PMS_P2;Temp;Humidity;BMP_temperature;BMP_pressure;BME280_temperature;BME280_humidity;BME280_pressure;Samples;Min_cycle;Max_cycle;Signal;HPM_P1;HPM_P2
2023/03/18 00:00:11;;;;;;;;;;;12.20;70.20;12.60;99250.00;;;;339996;28;94178;-88
2023/03/18 00:00:23;;;;;;;;;;;12.20;70.00;12.60;99248.00;;;;342039;28;83895;-88
2023/03/18 00:00:35;;;;;;;;;;;12.20;70.10;12.60;99244.00;;;;339870;28;97171;-88
2023/03/18 00:00:46;;;;;;;;;;;12.20;70.20;12.60;99246.00;;;;340726;28;83442;-88
2023/03/18 00:01:02;;;;;;;;;;;12.20;70.50;12.60;99258.00;;;;341098;28;95260;-88
2023/03/18 00:01:14;;;;;;;;;;;12.20;70.90;12.60;99256.00;;;;340594;28;83484;-88
2023/03/18 00:01:27;;;;;;;;;;;12.20;70.50;12.60;99251.00;;;;337272;28;96574;-88
2023/03/18 00:01:38;;;;;;;;;;;12.20;70.00;12.60;99262.00;;;;340615;28;83478;-88
2023/03/18 00:01:50;;;;;;;;;;;12.20;70.10;12.60;99246.00;;;;340956;28;96435;-89
2023/03/18 00:02:02;;;;;;;;;;;12.20;69.90;12.60;99246.00;;;;337969;28;83448;-88
2023/03/18 00:02:14;;;;;;;;;;;12.20;70.20;12.60;99248.00;;;;338619;28;92728;-88
2023/03/18 00:02:26;;;;;;;;;;;12.20;70.30;12.60;99252.00;;;;341950;28;83413;-88
2023/03/18 00:02:39;;;;;;;;;;;12.20;70.20;12.70;99249.00;;;;339863;28;98121;-88
2023/03/18 00:02:51;;;;;;;;;;;12.20;70.10;12.60;99242.00;;;;338045;28;82593;-88
2023/03/18 00:03:03;;;;;;;;;;;12.20;70.00;12.70;99259.00;;;;338418;28;96300;-88
2023/03/18 00:03:15;;;;;;;;;;;12.20;70.00;12.70;99256.00;;;;342054;28;82517;-88
2023/03/18 00:03:27;;;;;;;;;;;12.20;69.90;12.70;99249.00;;;;342607;28;95434;-88
2023/03/18 00:03:39;;;;;;;;;;;12.20;70.00;12.60;99251.00;;;;339266;28;83476;-88
2023/03/18 00:03:51;;;;;;;;;;;12.20;70.20;12.60;99249.00;;;;339913;28;93785;-88
2023/03/18 00:04:03;;;;;;;;;;;12.20;70.00;12.60;99251.00;;;;340567;28;83380;-88
2023/03/18 00:04:15;;;;;;;;;;;12.20;69.90;12.60;99246.00;;;;339858;28;95463;-88
2023/03/18 00:04:28;;;;;;;;;;;12.20;69.90;12.60;99244.00;;;;340630;28;83365;-88
2023/03/18 00:04:40;;;;;;;;;;;12.20;69.90;12.60;99247.00;;;;339862;28;97621;-88
2023/03/18 00:04:52;;;;;;;;;;;12.20;70.10;12.60;99257.00;;;;342003;28;83357;-88
2023/03/18 00:05:06;;;;;;;;;;;12.20;70.10;12.60;99242.00;;;;338464;28;96809;-88
2023/03/18 00:05:18;;;;;;;;;;;12.20;70.10;12.70;99253.00;;;;340490;28;83474;-88
2023/03/18 00:05:31;;;;;;;;;;;12.20;70.00;12.60;99247.00;;;;341226;28;95517;-88
2023/03/18 00:05:42;;;;;;;;;;;12.20;70.10;12.70;99253.00;;;;341954;28;83496;-89
2023/03/18 00:06:05;;;;;;;;;;;12.20;70.10;12.60;99247.00;;;;342646;28;95929;-88
2023/03/18 00:06:18;;;;;;;;;;;12.20;70.10;12.60;99255.00;;;;343278;28;83429;-88
2023/03/18 00:06:30;;;;;;;;;;;12.20;70.20;12.60;99253.00;;;;342613;28;96127;-88
2023/03/18 00:06:42;;;;;;;;;;;12.20;70.20;12.60;99251.00;;;;340692;28;83257;-88
2023/03/18 00:06:54;;;;;;;;;;;12.20;70.40;12.60;99246.00;;;;341000;28;98102;-89
2023/03/18 00:07:05;;;;;;;;;;;12.20;70.40;12.60;99250.00;;;;340666;28;82518;-89
2023/03/18 00:07:17;;;;;;;;;;;12.20;70.40;12.50;99251.00;;;;340036;28;94822;-88
2023/03/18 00:07:30;;;;;;;;;;;12.20;70.50;12.60;99256.00;;;;343409;28;83454;-88
2023/03/18 00:07:42;;;;;;;;;;;12.20;70.20;12.60;99253.00;;;;341254;28;96304;-88
2023/03/18 00:07:53;;;;;;;;;;;12.20;70.30;12.60;99249.00;;;;340677;28;82558;-88
2023/03/18 00:08:05;;;;;;;;;;;12.20;70.40;12.50;99250.00;;;;340850;28;96642;-87
2023/03/18 00:08:17;;;;;;;;;;;12.20;70.40;12.60;99248.00;;;;343396;28;83347;-88
2023/03/18 00:08:29;;;;;;;;;;;12.20;70.30;12.60;99254.00;;;;337293;28;96419;-89
2023/03/18 00:08:41;;;;;;;;;;;12.20;70.40;12.60;99253.00;;;;338213;28;82579;-89
2023/03/18 00:08:53;;;;;;;;;;;12.20;70.40;12.60;99252.00;;;;337234;28;94793;-88
2023/03/18 00:09:05;;;;;;;;;;;12.20;70.50;12.60;99252.00;;;;340625;28;83393;-88
2023/03/18 00:09:17;;;;;;;;;;;12.20;70.40;12.50;99266.00;;;;341367;28;96420;-88
2023/03/18 00:09:29;;;;;;;;;;;12.20;70.40;12.50;99254.00;;;;340684;28;83339;-88
2023/03/18 00:09:41;;;;;;;;;;;12.10;70.30;12.50;99259.00;;;;341192;28;96461;-89
2023/03/18 00:09:53;;;;;;;;;;;12.20;70.40;12.40;99251.00;;;;339499;28;82948;-88
2023/03/18 00:10:05;;;;;;;;;;;12.10;70.40;12.50;99263.00;;;;342956;28;96373;-89
2023/03/18 00:10:17;;;;;;;;;;;12.10;70.20;12.50;99250.00;;;;344783;28;82336;-88
2023/03/18 00:10:30;;;;;;;;;;;12.10;70.10;12.50;99258.00;;;;341223;28;96463;-88
2023/03/18 00:10:42;;;;;;;;;;;12.20;70.10;12.60;99257.00;;;;342117;28;83183;-89
2023/03/18 00:10:54;;;;;;;;;;;12.10;70.00;12.60;99261.00;;;;341128;28;98764;-89
2023/03/18 00:11:06;;;;;;;;;;;12.20;70.10;12.60;99247.00;;;;343304;28;83548;-88
2023/03/18 00:11:20;;;;;;;;;;;12.10;70.00;12.60;99265.00;;;;345078;28;96669;-88
2023/03/18 00:11:31;;;;;;;;;;;12.10;70.10;12.50;99257.00;;;;344804;28;83414;-89
2023/03/18 00:11:44;;;;;;;;;;;12.20;70.20;12.50;99258.00;;;;341296;28;96170;-88
2023/03/18 00:11:56;;;;;;;;;;;12.20;70.10;12.50;99248.00;;;;342000;28;82540;-88
2023/03/18 00:12:09;;;;;;;;;;;12.20;70.10;12.50;99258.00;;;;342415;28;96311;-88
2023/03/18 00:12:23;;;;;;;;;;;12.10;70.10;12.60;99259.00;;;;344698;28;83211;-88
2023/03/18 00:12:37;;;;;;;;;;;12.10;70.10;12.60;99258.00;;;;342712;28;92706;-88
2023/03/18 00:12:49;;;;;;;;;;;12.20;70.10;12.50;99251.00;;;;343424;28;82511;-88
2023/03/18 00:13:03;;;;;;;;;;;12.10;69.90;12.50;99258.00;;;;343883;28;94698;-88
2023/03/18 00:13:15;;;;;;;;;;;12.20;70.00;12.60;99252.00;;;;346106;28;83416;-89
2023/03/18 00:13:26;;;;;;;;;;;12.10;69.90;12.60;99265.00;;;;341166;28;96376;-88
2023/03/18 00:13:40;;;;;;;;;;;12.20;70.20;12.60;99265.00;;;;344456;28;82374;-88
2023/03/18 00:13:52;;;;;;;;;;;12.20;70.00;12.60;99260.00;;;;341165;28;96614;-88
2023/03/18 00:14:04;;;;;;;;;;;12.20;69.90;12.60;99253.00;;;;340597;28;83319;-88
2023/03/18 00:14:16;;;;;;;;;;;12.20;69.90;12.60;99251.00;;;;342483;28;95586;-88
2023/03/18 00:14:28;;;;;;;;;;;12.20;70.00;12.60;99252.00;;;;344682;28;83378;-89
2023/03/18 00:14:40;;;;;;;;;;;12.20;70.00;12.50;99257.00;;;;342548;28;96637;-88
2023/03/18 00:14:52;;;;;;;;;;;12.20;70.00;12.50;99260.00;;;;346119;28;83256;-88
2023/03/18 00:15:08;;;;;;;;;;;12.20;69.90;12.60;99267.00;;;;343849;28;97162;-88
2023/03/18 00:15:20;;;;;;;;;;;12.20;69.90;12.60;99262.00;;;;346119;28;83424;-88
2023/03/18 00:15:32;;;;;;;;;;;12.20;69.90;12.60;99254.00;;;;339845;28;95305;-88
2023/03/18 00:15:44;;;;;;;;;;;12.20;70.00;12.60;99248.00;;;;341643;28;84107;-88
2023/03/18 00:15:55;;;;;;;;;;;12.20;70.00;12.60;99248.00;;;;342601;28;96665;-88
2023/03/18 00:16:10;;;;;;;;;;;12.20;70.30;12.50;99257.00;;;;343335;28;83588;-88
2023/03/18 00:16:22;;;;;;;;;;;12.20;70.20;12.50;99258.00;;;;341152;28;95587;-88
2023/03/18 00:16:35;;;;;;;;;;;12.20;70.10;12.50;99256.00;;;;341972;28;82619;-88
2023/03/18 00:16:48;;;;;;;;;;;12.10;69.90;12.50;99265.00;;;;343952;28;95485;-88
2023/03/18 00:17:00;;;;;;;;;;;12.20;69.90;12.50;99259.00;;;;344651;28;83477;-88
2023/03/18 00:17:11;;;;;;;;;;;12.20;70.00;12.50;99261.00;;;;341042;28;97489;-88
2023/03/18 00:17:24;;;;;;;;;;;12.20;69.90;12.50;99259.00;;;;346119;28;83423;-88
2023/03/18 00:17:36;;;;;;;;;;;12.20;69.90;12.60;99251.00;;;;341160;28;96651;-89
2023/03/18 00:17:48;;;;;;;;;;;12.20;69.90;12.50;99260.00;;;;342070;28;83307;-88
2023/03/18 00:18:00;;;;;;;;;;;12.20;70.00;12.60;99258.00;;;;342512;28;97422;-88
2023/03/18 00:18:11;;;;;;;;;;;12.10;69.90;12.50;99264.00;;;;344667;28;83465;-89
2023/03/18 00:18:24;;;;;;;;;;;12.20;69.90;12.60;99254.00;;;;342427;28;96916;-88
2023/03/18 00:18:36;;;;;;;;;;;12.10;69.80;12.60;99256.00;;;;341763;28;83523;-88
2023/03/18 00:18:48;;;;;;;;;;;12.20;70.00;12.60;99256.00;;;;342544;28;94269;-88
2023/03/18 00:19:01;;;;;;;;;;;12.20;70.10;12.60;99257.00;;;;341921;28;83418;-89
2023/03/18 00:19:13;;;;;;;;;;;12.10;70.10;12.50;99252.00;;;;341099;28;97630;-89
2023/03/18 00:19:25;;;;;;;;;;;12.10;70.10;12.50;99249.00;;;;343345;28;83270;-88
2023/03/18 00:19:36;;;;;;;;;;;12.10;70.10;12.50;99256.00;;;;345197;28;96392;-88
2023/03/18 00:19:49;;;;;;;;;;;12.10;70.10;12.50;99251.00;;;;343335;28;83484;-88
2023/03/18 00:20:05;;;;;;;;;;;12.10;70.20;12.50;99264.00;;;;342342;28;96477;-88
2023/03/18 00:20:27;;;;;;;;;;;12.10;70.10;12.50;99255.00;;;;343257;28;82517;-88
2023/03/18 00:20:39;;;;;;;;;;;12.10;70.20;12.50;99259.00;;;;341168;28;96472;-88
2023/03/18 00:20:51;;;;;;;;;;;12.10;70.10;12.50;99256.00;;;;340616;28;82503;-88
2023/03/18 00:21:03;;;;;;;;;;;12.10;70.30;12.50;99256.00;;;;342377;28;96883;-88
2023/03/18 00:21:15;;;;;;;;;;;12.10;70.40;12.50;99251.00;;;;343342;28;83433;-88
2023/03/18 00:21:28;;;;;;;;;;;12.10;70.40;12.50;99251.00;;;;342635;28;96478;-89
2023/03/18 00:21:40;;;;;;;;;;;12.10;70.40;12.50;99265.00;;;;344708;28;83268;-88
2023/03/18 00:21:51;;;;;;;;;;;12.10;70.50;12.50;99249.00;;;;343929;28;96607;-88
2023/03/18 00:22:03;;;;;;;;;;;12.10;70.50;12.50;99254.00;;;;341980;28;82590;-89
2023/03/18 00:22:16;;;;;;;;;;;12.10;70.40;12.50;99248.00;;;;343910;28;96819;-89
2023/03/18 00:22:28;;;;;;;;;;;12.10;70.40;12.50;99252.00;;;;341972;28;82588;-88
2023/03/18 00:22:40;;;;;;;;;;;12.10;70.60;12.60;99248.00;;;;341274;28;94831;-88
2023/03/18 00:22:52;;;;;;;;;;;12.10;70.60;12.50;99255.00;;;;344654;28;82352;-89
2023/03/18 00:23:07;;;;;;;;;;;12.10;70.50;12.50;99251.00;;;;342521;28;96902;-88
2023/03/18 00:23:20;;;;;;;;;;;12.10;70.50;12.50;99253.00;;;;343486;28;82455;-88
2023/03/18 00:23:31;;;;;;;;;;;12.10;70.60;12.50;99255.00;;;;342501;28;96133;-88
2023/03/18 00:23:43;;;;;;;;;;;12.10;70.60;12.50;99256.00;;;;341936;28;83385;-88
2023/03/18 00:23:57;;;;;;;;;;;12.10;70.90;12.50;99252.00;;;;343930;28;96304;-89
2023/03/18 00:24:10;;;;;;;;;;;12.10;70.90;12.50;99251.00;;;;341797;28;83335;-89
2023/03/18 00:24:22;;;;;;;;;;;12.10;70.70;12.50;99255.00;;;;339672;28;96670;-88
2023/03/18 00:24:34;;;;;;;;;;;12.10;70.70;12.50;99256.00;;;;344715;28;83417;-89
2023/03/18 00:24:47;;;;;;;;;;;12.10;70.80;12.50;99250.00;;;;341129;28;96685;-88
2023/03/18 00:24:59;;;;;;;;;;;12.10;70.80;12.50;99254.00;;;;340471;28;83609;-88
2023/03/18 00:25:12;;;;;;;;;;;12.10;71.00;12.50;99253.00;;;;339903;28;96462;-88
2023/03/18 00:25:25;;;;;;;;;;;12.10;71.00;12.50;99249.00;;;;343314;28;82621;-89
2023/03/18 00:25:37;;;;;;;;;;;12.10;71.00;12.60;99259.00;;;;343775;28;97507;-88
2023/03/18 00:25:51;;;;;;;;;;;12.10;71.20;12.50;99251.00;;;;343342;28;82559;-88
2023/03/18 00:26:03;;;;;;;;;;;12.10;71.00;12.50;99253.00;;;;343943;28;96431;-89
2023/03/18 00:26:15;;;;;;;;;;;12.10;70.80;12.50;99254.00;;;;346058;28;83496;-88
2023/03/18 00:26:27;;;;;;;;;;;12.10;70.80;12.50;99249.00;;;;341043;28;95137;-89
2023/03/18 00:26:39;;;;;;;;;;;12.10;70.90;12.50;99250.00;;;;342095;28;82261;-89
2023/03/18 00:26:51;;;;;;;;;;;12.10;71.10;12.50;99246.00;;;;341134;28;97125;-88
2023/03/18 00:27:03;;;;;;;;;;;12.10;71.20;12.50;99247.00;;;;341665;28;82502;-88
2023/03/18 00:27:15;;;;;;;;;;;12.10;71.30;12.60;99237.00;;;;343942;28;96751;-89
2023/03/18 00:27:27;;;;;;;;;;;12.10;71.30;12.60;99251.00;;;;344692;28;83470;-88
2023/03/18 00:27:39;;;;;;;;;;;12.10;71.10;12.50;99248.00;;;;341040;28;98211;-88
2023/03/18 00:27:51;;;;;;;;;;;12.10;71.20;12.50;99247.00;;;;343361;28;83397;-88
2023/03/18 00:28:06;;;;;;;;;;;12.10;71.30;12.50;99247.00;;;;341179;28;96556;-88
2023/03/18 00:28:18;;;;;;;;;;;12.10;71.30;12.50;99248.00;;;;343243;28;83492;-89
2023/03/18 00:28:30;;;;;;;;;;;12.10;71.20;12.50;99239.00;;;;341192;28;96477;-88
2023/03/18 00:28:42;;;;;;;;;;;12.10;71.20;12.50;99249.00;;;;339369;28;83502;-88
2023/03/18 00:28:54;;;;;;;;;;;12.10;71.30;12.50;99244.00;;;;341165;28;96413;-88
2023/03/18 00:29:06;;;;;;;;;;;12.10;71.30;12.50;99250.00;;;;344800;28;82341;-88
2023/03/18 00:29:18;;;;;;;;;;;12.10;71.30;12.50;99242.00;;;;342540;28;96723;-88
2023/03/18 00:29:30;;;;;;;;;;;12.10;71.40;12.50;99249.00;;;;344732;28;83512;-88
2023/03/18 00:29:42;;;;;;;;;;;12.10;71.70;12.40;99245.00;;;;346444;28;98068;-88
2023/03/18 00:29:54;;;;;;;;;;;12.10;71.80;12.40;99241.00;;;;343436;28;82481;-89
2023/03/18 00:30:07;;;;;;;;;;;12.10;71.70;12.40;99243.00;;;;341173;28;96211;-88
2023/03/18 00:30:19;;;;;;;;;;;12.10;71.60;12.50;99235.00;;;;344630;28;83582;-88
2023/03/18 00:30:31;;;;;;;;;;;12.10;71.60;12.50;99245.00;;;;342518;28;96913;-88
2023/03/18 00:30:43;;;;;;;;;;;12.10;71.70;12.50;99243.00;;;;341702;28;82420;-88
2023/03/18 00:31:07;;;;;;;;;;;12.10;71.70;12.40;99245.00;;;;342620;28;92687;-88
2023/03/18 00:31:19;;;;;;;;;;;12.10;72.00;12.40;99242.00;;;;342041;28;83460;-88
2023/03/18 00:31:31;;;;;;;;;;;12.00;72.00;12.40;99245.00;;;;339835;28;95654;-88
2023/03/18 00:31:43;;;;;;;;;;;12.10;72.40;12.40;99249.00;;;;341904;28;83507;-88
2023/03/18 00:31:58;;;;;;;;;;;12.00;72.40;12.40;99240.00;;;;341175;28;97586;-88
2023/03/18 00:32:10;;;;;;;;;;;12.00;72.30;12.40;99244.00;;;;340706;28;83405;-88
2023/03/18 00:32:22;;;;;;;;;;;12.00;72.40;12.40;99239.00;;;;339859;28;96390;-89
2023/03/18 00:32:34;;;;;;;;;;;12.00;72.30;12.40;99246.00;;;;340596;28;83496;-88
2023/03/18 00:32:46;;;;;;;;;;;12.00;72.40;12.40;99246.00;;;;341138;28;96488;-88
2023/03/18 00:32:58;;;;;;;;;;;12.00;72.20;12.40;99253.00;;;;341944;28;83580;-89
2023/03/18 00:33:11;;;;;;;;;;;12.00;72.30;12.40;99248.00;;;;341156;28;96345;-88
2023/03/18 00:33:23;;;;;;;;;;;12.00;72.40;12.30;99258.00;;;;338961;28;83600;-88
2023/03/18 00:33:36;;;;;;;;;;;12.00;72.80;12.40;99255.00;;;;342642;28;95625;-89
2023/03/18 00:33:49;;;;;;;;;;;12.00;72.80;12.40;99254.00;;;;341996;28;82520;-88
2023/03/18 00:34:00;;;;;;;;;;;12.00;72.80;12.40;99239.00;;;;341140;28;97495;-88
2023/03/18 00:34:13;;;;;;;;;;;12.00;72.80;12.40;99244.00;;;;343373;28;83474;-88
2023/03/18 00:34:25;;;;;;;;;;;12.00;72.90;12.40;99243.00;;;;339849;28;96428;-88
2023/03/18 00:34:38;;;;;;;;;;;12.00;72.90;12.40;99241.00;;;;336744;28;83167;-88
2023/03/18 00:34:50;;;;;;;;;;;12.00;73.00;12.40;99245.00;;;;339854;28;95772;-88
2023/03/18 00:35:02;;;;;;;;;;;12.00;72.90;12.40;99247.00;;;;340484;28;82622;-88
2023/03/18 00:35:15;;;;;;;;;;;12.00;73.00;12.40;99239.00;;;;338571;28;95328;-88
2023/03/18 00:35:27;;;;;;;;;;;12.00;73.30;12.40;99248.00;;;;340530;28;83494;-88
2023/03/18 00:35:38;;;;;;;;;;;12.00;73.30;12.40;99244.00;;;;341033;28;95262;-88
2023/03/18 00:35:52;;;;;;;;;;;12.00;73.10;12.40;99240.00;;;;341815;28;83563;-88
2023/03/18 00:36:05;;;;;;;;;;;12.00;73.20;12.40;99244.00;;;;339873;28;96166;-88
2023/03/18 00:36:17;;;;;;;;;;;12.00;73.20;12.40;99252.00;;;;340585;28;83439;-88
2023/03/18 00:36:29;;;;;;;;;;;12.00;73.20;12.30;99249.00;;;;339869;28;96317;-88
2023/03/18 00:36:43;;;;;;;;;;;12.00;73.20;12.30;99255.00;;;;342071;28;83408;-88
2023/03/18 00:36:55;;;;;;;;;;;12.00;73.20;12.40;99252.00;;;;342582;28;94070;-89
2023/03/18 00:37:09;;;;;;;;;;;12.00;73.30;12.30;99251.00;;;;340548;28;82558;-88
2023/03/18 00:37:29;;;;;;;;;;;12.00;73.30;12.30;99244.00;;;;339892;28;96648;-88
2023/03/18 00:37:42;;;;;;;;;;;12.00;73.50;12.30;99257.00;;;;340541;28;83473;-88
2023/03/18 00:37:54;;;;;;;;;;;12.00;73.60;12.30;99245.00;;;;341248;28;95569;-88
2023/03/18 00:38:07;;;;;;;;;;;12.00;73.50;12.30;99256.00;;;;343238;28;83446;-88
2023/03/18 00:38:19;;;;;;;;;;;12.00;73.50;12.30;99251.00;;;;342482;28;97997;-89
2023/03/18 00:38:32;;;;;;;;;;;12.00;73.60;12.30;99249.00;;;;339049;28;83182;-89
2023/03/18 00:38:45;;;;;;;;;;;12.00;73.60;12.40;99266.00;;;;339884;28;93823;-88
2023/03/18 00:38:57;;;;;;;;;;;12.00;73.50;12.30;99245.00;;;;341960;28;83248;-88
2023/03/18 00:39:09;;;;;;;;;;;12.00;74.20;12.40;99250.00;;;;339828;28;96828;-88
2023/03/18 00:39:25;;;;;;;;;;;11.90;73.50;12.40;99248.00;;;;340666;28;83367;-88
2023/03/18 00:39:37;;;;;;;;;;;12.00;73.50;12.40;99245.00;;;;341202;28;95499;-88
2023/03/18 00:39:49;;;;;;;;;;;12.00;73.60;12.40;99247.00;;;;343255;28;83564;-88
2023/03/18 00:40:16;;;;;;;;;;;12.00;73.90;12.40;99253.00;;;;338577;28;93910;-88
2023/03/18 00:40:41;;;;;;;;;;;12.00;73.90;12.40;99248.00;;;;340537;28;83570;-88
2023/03/18 00:41:00;;;;;;;;;;;12.00;73.90;12.30;99258.00;;;;337012;28;98853;-88
2023/03/18 00:41:14;;;;;;;;;;;12.00;73.80;12.30;99255.00;;;;340663;28;82525;-88
2023/03/18 00:41:26;;;;;;;;;;;12.00;74.00;12.30;99252.00;;;;341143;28;97101;-88
2023/03/18 00:41:38;;;;;;;;;;;11.90;74.00;12.30;99246.00;;;;339175;28;83512;-88
2023/03/18 00:41:51;;;;;;;;;;;11.90;74.00;12.30;99242.00;;;;339730;28;95548;-88
2023/03/18 00:42:09;;;;;;;;;;;11.90;73.80;12.30;99238.00;;;;341915;28;82453;-88
2023/03/18 00:42:22;;;;;;;;;;;11.90;73.90;12.30;99240.00;;;;338516;28;95416;-88
2023/03/18 00:42:38;;;;;;;;;;;11.90;74.10;12.30;99246.00;;;;342007;28;83429;-88
2023/03/18 00:42:56;;;;;;;;;;;12.00;74.20;12.30;99250.00;;;;341193;28;96142;-89
2023/03/18 00:43:09;;;;;;;;;;;11.90;74.00;12.30;99245.00;;;;337995;28;83444;-88
2023/03/18 00:43:28;;;;;;;;;;;12.00;74.00;12.30;99250.00;;;;338485;28;97500;-88
2023/03/18 00:43:51;;;;;;;;;;;11.90;74.20;12.30;99252.00;;;;339308;28;83453;-88
2023/03/18 00:44:03;;;;;;;;;;;11.90;74.10;12.30;99248.00;;;;337242;28;96530;-88
2023/03/18 00:44:15;;;;;;;;;;;11.90;74.10;12.30;99249.00;;;;339267;28;83258;-88
2023/03/18 00:44:27;;;;;;;;;;;11.90;74.20;12.30;99248.00;;;;341290;28;94286;-88
2023/03/18 00:44:38;;;;;;;;;;;11.90;74.20;12.30;99244.00;;;;340617;28;83309;-88
2023/03/18 00:44:51;;;;;;;;;;;11.90;74.20;12.30;99254.00;;;;339898;28;95516;-88
2023/03/18 00:45:03;;;;;;;;;;;11.90;74.20;12.30;99251.00;;;;340613;28;83583;-88
2023/03/18 00:45:15;;;;;;;;;;;11.90;74.40;12.30;99246.00;;;;339786;28;96709;-88
2023/03/18 00:45:28;;;;;;;;;;;11.90;74.30;12.30;99247.00;;;;339232;28;83422;-89
2023/03/18 00:45:41;;;;;;;;;;;11.90;74.40;12.30;99252.00;;;;339747;28;95087;-88
2023/03/18 00:45:53;;;;;;;;;;;11.90;74.40;12.30;99241.00;;;;341650;28;82604;-87
2023/03/18 00:46:05;;;;;;;;;;;11.90;74.40;12.30;99233.00;;;;338606;28;96483;-87
2023/03/18 00:46:20;;;;;;;;;;;11.90;74.40;12.30;99243.00;;;;339280;28;83569;-88
2023/03/18 00:46:33;;;;;;;;;;;11.90;74.40;12.30;99249.00;;;;335940;28;96457;-88
2023/03/18 00:46:46;;;;;;;;;;;11.90;74.50;12.20;99238.00;;;;337856;28;83427;-89
2023/03/18 00:46:57;;;;;;;;;;;11.90;74.70;12.30;99244.00;;;;339732;28;96400;-88
2023/03/18 00:47:09;;;;;;;;;;;11.90;74.60;12.30;99242.00;;;;340585;28;83522;-89
2023/03/18 00:47:22;;;;;;;;;;;11.90;74.80;12.20;99237.00;;;;339923;28;93831;-88
2023/03/18 00:47:34;;;;;;;;;;;11.90;74.80;12.30;99239.00;;;;343394;28;83404;-88
2023/03/18 00:47:47;;;;;;;;;;;11.90;75.30;12.30;99248.00;;;;341085;28;97248;-89
2023/03/18 00:47:59;;;;;;;;;;;11.90;74.70;12.30;99246.00;;;;340152;28;83553;-88
2023/03/18 00:48:10;;;;;;;;;;;11.90;74.80;12.30;99234.00;;;;339862;28;96299;-88
2023/03/18 00:48:23;;;;;;;;;;;11.90;74.80;12.20;99240.00;;;;343242;28;82603;-89
2023/03/18 00:48:35;;;;;;;;;;;11.90;74.80;12.20;99236.00;;;;342561;28;96546;-89
2023/03/18 00:48:47;;;;;;;;;;;11.90;74.80;12.20;99237.00;;;;337961;28;83492;-88
2023/03/18 00:49:03;;;;;;;;;;;11.90;74.80;12.30;99236.00;;;;338516;28;95390;-89
2023/03/18 00:49:16;;;;;;;;;;;11.90;74.90;12.20;99233.00;;;;341996;28;83362;-88
2023/03/18 00:49:28;;;;;;;;;;;11.90;74.90;12.20;99235.00;;;;339850;28;96239;-88
2023/03/18 00:49:40;;;;;;;;;;;11.80;74.90;12.20;99244.00;;;;340545;28;83547;-88
2023/03/18 00:49:52;;;;;;;;;;;11.80;74.80;12.20;99236.00;;;;339817;28;97347;-88
2023/03/18 00:50:06;;;;;;;;;;;11.80;75.00;12.30;99237.00;;;;340663;28;83349;-89
2023/03/18 00:50:18;;;;;;;;;;;11.80;74.80;12.30;99241.00;;;;342492;28;95368;-88
2023/03/18 00:50:29;;;;;;;;;;;11.80;74.80;12.30;99244.00;;;;342117;28;82402;-88
2023/03/18 00:50:43;;;;;;;;;;;11.90;74.90;12.30;99243.00;;;;340948;28;97404;-89
2023/03/18 00:50:55;;;;;;;;;;;11.90;75.10;12.30;99236.00;;;;337938;28;83400;-88
2023/03/18 00:51:07;;;;;;;;;;;11.80;75.10;12.30;99239.00;;;;339775;28;96718;-88
2023/03/18 00:51:20;;;;;;;;;;;11.80;75.00;12.20;99231.00;;;;340689;28;83386;-89
2023/03/18 00:51:35;;;;;;;;;;;11.80;75.10;12.20;99232.00;;;;339893;28;96796;-89
2023/03/18 00:51:47;;;;;;;;;;;11.80;75.10;12.20;99239.00;;;;342027;28;82520;-89
2023/03/18 00:51:59;;;;;;;;;;;11.80;75.00;12.20;99226.00;;;;339868;28;97402;-88
2023/03/18 00:52:11;;;;;;;;;;;11.90;74.90;12.20;99239.00;;;;339353;28;82391;-88
2023/03/18 00:52:24;;;;;;;;;;;11.80;74.90;12.20;99237.00;;;;341235;28;96199;-88
2023/03/18 00:52:36;;;;;;;;;;;11.80;74.90;12.20;99239.00;;;;340816;28;83308;-88
2023/03/18 00:52:48;;;;;;;;;;;11.80;74.90;12.20;99242.00;;;;339664;28;94076;-88
2023/03/18 00:53:00;;;;;;;;;;;11.80;74.90;12.20;99238.00;;;;340741;28;82533;-88
2023/03/18 00:53:13;;;;;;;;;;;11.80;74.90;12.20;99247.00;;;;338691;28;95393;-89
2023/03/18 00:53:25;;;;;;;;;;;11.80;74.80;12.20;99246.00;;;;339422;28;82534;-89
2023/03/18 00:53:37;;;;;;;;;;;11.80;75.00;12.20;99250.00;;;;339858;28;95571;-89
2023/03/18 00:53:51;;;;;;;;;;;11.80;75.00;12.20;99242.00;;;;341996;28;82621;-88
2023/03/18 00:54:08;;;;;;;;;;;11.80;75.10;12.20;99246.00;;;;338523;28;96878;-89
2023/03/18 00:54:20;;;;;;;;;;;11.80;75.00;12.20;99252.00;;;;341765;28;83528;-89
2023/03/18 00:54:32;;;;;;;;;;;11.80;75.10;12.20;99241.00;;;;339830;28;96693;-88
2023/03/18 00:54:44;;;;;;;;;;;11.80;75.20;12.20;99242.00;;;;337943;28;83233;-88
2023/03/18 00:54:56;;;;;;;;;;;11.80;75.30;12.20;99241.00;;;;341190;28;96955;-88
2023/03/18 00:55:09;;;;;;;;;;;11.80;75.40;12.20;99242.00;;;;343217;28;83472;-88
2023/03/18 00:55:21;;;;;;;;;;;11.80;75.30;12.20;99253.00;;;;338566;28;97015;-88
2023/03/18 00:55:33;;;;;;;;;;;11.80;75.10;12.20;99249.00;;;;342097;28;82437;-88
2023/03/18 00:55:45;;;;;;;;;;;11.80;75.10;12.20;99248.00;;;;342603;28;95205;-88
2023/03/18 00:55:57;;;;;;;;;;;11.80;75.10;12.20;99245.00;;;;339270;28;83476;-88
2023/03/18 00:56:10;;;;;;;;;;;11.80;75.10;12.20;99249.00;;;;341189;28;96288;-89
2023/03/18 00:56:24;;;;;;;;;;;11.80;75.30;12.20;99249.00;;;;339187;28;83483;-88
2023/03/18 00:56:39;;;;;;;;;;;11.80;75.40;12.20;99240.00;;;;338654;28;95319;-89
2023/03/18 00:56:50;;;;;;;;;;;11.80;75.40;12.20;99241.00;;;;338083;28;83420;-89
2023/03/18 00:57:02;;;;;;;;;;;11.90;75.50;12.20;99248.00;;;;341098;28;96902;-89
2023/03/18 00:57:14;;;;;;;;;;;11.80;75.30;12.20;99252.00;;;;342021;28;83312;-89
2023/03/18 00:57:28;;;;;;;;;;;11.80;75.10;12.30;99249.00;;;;341070;28;96582;-88
2023/03/18 00:57:40;;;;;;;;;;;11.80;75.10;12.20;99248.00;;;;340472;28;82577;-89
2023/03/18 00:57:52;;;;;;;;;;;11.80;75.20;12.20;99244.00;;;;341103;28;96741;-89
2023/03/18 00:58:04;;;;;;;;;;;11.80;75.20;12.20;99241.00;;;;340660;28;83395;-88
2023/03/18 00:58:15;;;;;;;;;;;11.80;75.40;12.20;99247.00;;;;341215;28;96820;-89
2023/03/18 00:58:27;;;;;;;;;;;11.80;75.40;12.20;99250.00;;;;342001;28;83337;-89
2023/03/18 00:58:39;;;;;;;;;;;11.80;75.40;12.20;99234.00;;;;341261;28;96480;-88
2023/03/18 00:58:52;;;;;;;;;;;11.80;75.30;12.20;99236.00;;;;341687;28;83500;-88
2023/03/18 00:59:05;;;;;;;;;;;11.80;75.60;12.20;99243.00;;;;341046;28;95411;-88
2023/03/18 00:59:17;;;;;;;;;;;11.90;75.60;12.20;99244.00;;;;343251;28;83316;-88
2023/03/18 00:59:29;;;;;;;;;;;11.80;75.20;12.20;99238.00;;;;342493;28;95641;-88
2023/03/18 00:59:41;;;;;;;;;;;11.80;75.20;12.20;99238.00;;;;340562;28;83489;-88
2023/03/18 00:59:53;;;;;;;;;;;11.80;75.20;12.20;99245.00;;;;339855;28;96648;-89
2023/03/18 01:00:06;;;;;;;;;;;11.80;75.20;12.20;99241.00;;;;341731;28;83480;-89
2023/03/18 01:00:18;;;;;;;;;;;11.80;75.20;12.20;99242.00;;;;338485;28;97106;-88
2023/03/18 01:00:30;;;;;;;;;;;11.80;75.30;12.20;99239.00;;;;339232;28;83632;-88
2023/03/18 01:00:42;;;;;;;;;;;11.80;75.10;12.20;99244.00;;;;341211;28;95698;-88
2023/03/18 01:00:55;;;;;;;;;;;11.80;75.20;12.20;99244.00;;;;340508;28;83473;-88
2023/03/18 01:01:07;;;;;;;;;;;11.80;75.20;12.20;99237.00;;;;341156;28;95852;-88
2023/03/18 01:01:20;;;;;;;;;;;11.80;75.10;12.30;99241.00;;;;339377;28;83354;-88
2023/03/18 01:01:32;;;;;;;;;;;11.80;75.10;12.30;99241.00;;;;338585;28;96392;-89
2023/03/18 01:01:44;;;;;;;;;;;11.80;75.10;12.20;99243.00;;;;341884;28;83522;-87
2023/03/18 01:01:55;;;;;;;;;;;11.80;75.50;12.20;99242.00;;;;337211;28;94283;-89
2023/03/18 01:02:07;;;;;;;;;;;11.80;75.30;12.20;99243.00;;;;341820;28;83515;-88
2023/03/18 01:02:19;;;;;;;;;;;11.80;75.10;12.30;99244.00;;;;341087;28;97427;-88
2023/03/18 01:02:31;;;;;;;;;;;11.80;75.10;12.30;99246.00;;;;339268;28;82501;-88
2023/03/18 01:02:43;;;;;;;;;;;11.80;75.00;12.30;99238.00;;;;342600;28;95462;-88
2023/03/18 01:02:55;;;;;;;;;;;11.90;75.10;12.20;99245.00;;;;340390;28;83482;-88
2023/03/18 01:03:07;;;;;;;;;;;11.80;75.20;12.20;99237.00;;;;338437;28;94224;-88